Airfield :
LOGIN :

Register | Disclaimer

   EN    FR    IT 

 










Legend :    VFR   Marginal VFR   IFR   Intensive IFR   Very Intensive IFR
Visi :
Ceiling :
>= 8 km
>= 3000ft
5 to 8 km
1000 to 3000 ft
1500m to 5 km
500 to 1000 ft
800 to 1500m
200 to 500 ft
< 800m
< 200 ft
Symbols :   Thunderstorms  Fog  Heavy snow  Heavy precipitations  Wind > 20 kt
SIGMETs :     Misc.  Thunderstorms  Icing  Turbulence  Mountain Waves  Volcanic Ashes







- Airport Elevation : 294 ft
- IATA code : NAP


LIRN - Naples Capodichino

CURRENT METAR :
  • 262320Z VRB02KT CAVOK 24/20 Q1013 NOSIG

EXPIRED METARs :
  • 262250Z 00000KT CAVOK 24/19 Q1013 NOSIG
  • 262220Z 25001KT CAVOK 25/19 Q1013 NOSIG
  • 262150Z 00000KT CAVOK 25/19 Q1013 NOSIG
  • 262120Z 00000KT CAVOK 25/19 Q1013 NOSIG

TAF TAF LIRN
Valid from the 27 at 00:00 until the 28 at 00:00 UTC


262300Z 2700/2724 VRB06KT CAVOK
BECMG 2709/2711 21012KT
BECMG 2718/2720 VRB04KT
No reported NOTAMs for that airfield.



MET'MAP, your aeronautical weather chart ! - Copyright ORBIFLY December 2007 - Disclaimer

ORBIFLY MET'MAP TEAM :

Programming & Development : Alexandra Zaïnal
Concept & Development : Baudouin d'Aumeries
Co-Development & Prog : Marc-Olivier Méhu
Technical & hardware support : Manuel Goepfert

Contact : metmap@orbifly.com




SOURCES & CREDITS :

   NOAA